createdAt,value
2018-09-24T00:00:55.863Z,99.90
2018-09-24T00:02:00.411Z,99.90
2018-09-24T00:03:04.874Z,99.90
2018-09-24T00:04:09.185Z,99.90
2018-09-24T00:05:13.485Z,99.90
2018-09-24T00:06:17.661Z,99.90
2018-09-24T00:07:21.918Z,99.90
2018-09-24T00:08:26.465Z,99.90
2018-09-24T00:09:30.979Z,99.90
2018-09-24T00:10:35.430Z,99.90
2018-09-24T00:11:39.815Z,99.90
2018-09-24T00:12:44.165Z,99.90
2018-09-24T00:13:48.468Z,99.90
2018-09-24T00:14:52.924Z,99.90
2018-09-24T00:15:57.746Z,99.90
2018-09-24T00:17:02.106Z,99.90
2018-09-24T00:18:06.213Z,99.90
2018-09-24T00:19:10.554Z,99.90
2018-09-24T00:20:14.921Z,99.90
2018-09-24T00:21:19.069Z,99.90
2018-09-24T00:22:23.368Z,99.90
2018-09-24T00:23:27.811Z,99.90
2018-09-24T00:24:32.133Z,99.90
2018-09-24T00:25:36.528Z,99.90
2018-09-24T00:26:41.233Z,99.90
2018-09-24T00:27:45.482Z,99.90
2018-09-24T00:28:49.818Z,99.90
2018-09-24T00:29:54.241Z,99.90
2018-09-24T00:30:58.586Z,99.90
2018-09-24T00:32:02.753Z,99.90
2018-09-24T00:33:07.392Z,99.90
2018-09-24T00:34:11.925Z,99.90
2018-09-24T00:35:16.109Z,99.90
2018-09-24T00:36:20.336Z,99.90
2018-09-24T00:37:24.770Z,99.90
2018-09-24T00:38:28.891Z,99.90
2018-09-24T00:39:33.313Z,99.90
2018-09-24T00:40:37.593Z,99.90
2018-09-24T00:41:41.766Z,99.90
2018-09-24T00:42:46.124Z,99.90
2018-09-24T00:43:50.493Z,99.90
2018-09-24T00:44:54.531Z,99.90
2018-09-24T00:45:58.921Z,99.90
2018-09-24T00:47:02.984Z,99.90
2018-09-24T00:48:07.382Z,99.90
2018-09-24T00:49:11.611Z,99.90
2018-09-24T00:50:15.997Z,99.90
2018-09-24T00:51:20.285Z,99.90
2018-09-24T00:52:24.438Z,99.90
2018-09-24T00:53:28.506Z,99.90
2018-09-24T00:54:32.947Z,99.90
2018-09-24T00:55:37.089Z,99.90
2018-09-24T00:56:41.273Z,99.90
2018-09-24T00:57:45.721Z,99.90
2018-09-24T00:58:49.988Z,99.90
2018-09-24T00:59:54.132Z,99.90
2018-09-24T01:00:58.325Z,99.90
2018-09-24T01:02:02.577Z,99.90
2018-09-24T01:03:06.461Z,99.90
2018-09-24T01:04:11.230Z,99.90
2018-09-24T01:05:15.860Z,99.90
2018-09-24T01:06:20.254Z,99.90
2018-09-24T01:07:24.440Z,99.90
2018-09-24T01:08:28.944Z,99.90
2018-09-24T01:09:33.254Z,99.90
2018-09-24T01:10:37.507Z,99.90
2018-09-24T01:11:41.851Z,99.90
2018-09-24T01:12:46.103Z,99.90
2018-09-24T01:13:50.320Z,99.90
2018-09-24T01:14:54.710Z,99.90
2018-09-24T01:15:58.894Z,99.90
2018-09-24T01:17:03.325Z,99.90
2018-09-24T01:18:07.727Z,99.90
2018-09-24T01:19:12.265Z,99.90
2018-09-24T01:20:16.484Z,99.90
2018-09-24T01:21:20.542Z,99.90
2018-09-24T01:22:24.988Z,99.90
2018-09-24T01:23:29.210Z,99.90
2018-09-24T01:24:33.286Z,99.90
2018-09-24T01:25:37.528Z,99.90
2018-09-24T01:26:41.974Z,99.90
2018-09-24T01:27:46.777Z,99.90
2018-09-24T01:28:51.101Z,99.90
2018-09-24T01:29:55.207Z,99.90
2018-09-24T01:30:59.625Z,99.90
2018-09-24T01:32:04.211Z,99.90
2018-09-24T01:33:08.417Z,99.90
2018-09-24T01:34:12.761Z,99.90
2018-09-24T01:35:16.845Z,99.90
2018-09-24T01:36:21.156Z,99.90
2018-09-24T01:37:25.358Z,99.90
2018-09-24T01:38:29.562Z,99.90
2018-09-24T01:39:33.925Z,99.90
2018-09-24T01:40:38.183Z,99.90
2018-09-24T01:41:42.349Z,99.90
2018-09-24T01:42:46.493Z,99.90
2018-09-24T01:43:50.854Z,99.90
2018-09-24T01:44:55.005Z,99.90
2018-09-24T01:45:59.279Z,99.90
2018-09-24T01:47:03.530Z,99.90
2018-09-24T01:48:07.937Z,99.90
2018-09-24T01:49:12.240Z,99.90
2018-09-24T01:50:16.420Z,99.90
2018-09-24T01:51:20.693Z,99.90
2018-09-24T01:52:24.917Z,99.90
2018-09-24T01:53:29.200Z,99.90
2018-09-24T01:54:33.506Z,99.90
2018-09-24T01:55:37.800Z,99.90
2018-09-24T01:56:42.293Z,99.90
2018-09-24T01:57:46.425Z,99.90
2018-09-24T01:58:50.717Z,99.90
2018-09-24T01:59:56.073Z,99.90
2018-09-24T02:01:00.210Z,99.90
2018-09-24T02:02:04.302Z,99.90
2018-09-24T02:03:08.495Z,99.90
2018-09-24T02:04:12.580Z,99.90
2018-09-24T02:05:17.441Z,99.90
2018-09-24T02:06:21.588Z,99.90
2018-09-24T02:07:25.980Z,99.90
2018-09-24T02:08:30.686Z,99.90
2018-09-24T02:09:35.109Z,99.90
2018-09-24T02:10:39.249Z,99.90
2018-09-24T02:11:43.767Z,99.90
2018-09-24T02:12:47.961Z,99.90
2018-09-24T02:13:53.114Z,99.90
2018-09-24T02:14:57.511Z,99.90
2018-09-24T02:16:01.714Z,99.90
2018-09-24T02:17:05.855Z,99.90
2018-09-24T02:18:10.116Z,99.90
2018-09-24T02:19:14.354Z,99.90
2018-09-24T02:20:18.707Z,99.90
2018-09-24T02:21:23.159Z,99.90
2018-09-24T02:22:30.547Z,99.90
2018-09-24T02:23:34.699Z,99.90
2018-09-24T02:24:39.035Z,99.90
2018-09-24T02:25:43.206Z,99.90
2018-09-24T02:26:47.386Z,99.90
2018-09-24T02:27:51.944Z,99.90
2018-09-24T02:28:56.279Z,99.90
2018-09-24T02:30:00.546Z,99.90
2018-09-24T02:31:05.205Z,99.90
2018-09-24T02:32:09.563Z,99.90
2018-09-24T02:33:14.105Z,99.90
2018-09-24T02:34:18.361Z,99.90
2018-09-24T02:35:22.580Z,99.90
2018-09-24T02:36:27.096Z,99.90
2018-09-24T02:37:31.342Z,99.90
2018-09-24T02:38:38.335Z,99.90
2018-09-24T02:39:42.457Z,99.90
2018-09-24T02:40:46.573Z,99.90
2018-09-24T02:41:54.047Z,99.90
2018-09-24T02:42:58.273Z,99.90
2018-09-24T02:44:02.695Z,99.90
2018-09-24T02:45:07.070Z,99.90
2018-09-24T02:46:11.260Z,99.90
2018-09-24T02:47:15.442Z,99.90
2018-09-24T02:48:19.731Z,99.90
2018-09-24T02:49:24.087Z,99.90
2018-09-24T02:50:35.987Z,99.90
2018-09-24T02:51:40.209Z,99.90
2018-09-24T02:52:44.500Z,99.90
2018-09-24T02:53:48.824Z,99.90
2018-09-24T02:54:52.971Z,99.90
2018-09-24T02:55:57.159Z,99.90
2018-09-24T02:57:01.421Z,99.90
2018-09-24T02:58:05.592Z,99.90
2018-09-24T02:59:10.002Z,99.90
2018-09-24T03:00:21.031Z,99.90
2018-09-24T03:01:26.526Z,99.90
2018-09-24T03:02:30.642Z,99.90
2018-09-24T03:03:34.898Z,99.90
2018-09-24T03:04:39.247Z,99.90
2018-09-24T03:05:43.962Z,99.90
2018-09-24T03:06:48.227Z,99.90
2018-09-24T03:07:52.415Z,99.90
2018-09-24T03:08:56.690Z,99.90
2018-09-24T03:10:00.986Z,99.90
2018-09-24T03:11:05.625Z,99.90
2018-09-24T03:12:09.895Z,99.90
2018-09-24T03:13:14.121Z,99.90
2018-09-24T03:14:25.806Z,99.90
2018-09-24T03:15:35.580Z,99.90
2018-09-24T03:16:40.072Z,99.90
2018-09-24T03:17:44.403Z,99.90
2018-09-24T03:18:55.120Z,99.90
2018-09-24T03:19:59.407Z,99.90
2018-09-24T03:21:03.522Z,99.90
2018-09-24T03:22:07.609Z,99.90
2018-09-24T03:23:12.026Z,99.90
2018-09-24T03:24:16.370Z,99.90
2018-09-24T03:25:20.764Z,99.90
2018-09-24T03:26:25.151Z,99.90
2018-09-24T03:27:29.634Z,99.90
2018-09-24T03:28:33.979Z,99.90
2018-09-24T03:29:38.140Z,99.90
2018-09-24T03:30:43.218Z,99.90
2018-09-24T03:31:47.588Z,99.90
2018-09-24T03:32:52.096Z,99.90
2018-09-24T03:33:56.291Z,99.90
2018-09-24T03:35:00.646Z,99.90
2018-09-24T03:36:05.019Z,99.90
2018-09-24T03:37:09.453Z,99.90
2018-09-24T03:38:13.953Z,99.90
2018-09-24T03:39:18.721Z,99.90
2018-09-24T03:40:23.389Z,99.90
2018-09-24T03:41:27.889Z,99.90
2018-09-24T03:42:32.154Z,99.90
2018-09-24T03:43:36.307Z,99.90
2018-09-24T03:44:40.665Z,99.90
2018-09-24T03:45:44.706Z,99.90
2018-09-24T03:46:49.144Z,99.90
2018-09-24T03:47:53.278Z,99.90
2018-09-24T03:48:57.394Z,99.90
2018-09-24T03:50:01.530Z,99.90
2018-09-24T03:51:05.643Z,99.90
2018-09-24T03:52:09.944Z,99.90
2018-09-24T03:53:14.335Z,99.90
2018-09-24T03:54:18.804Z,99.90
2018-09-24T03:55:23.063Z,99.90
2018-09-24T03:56:27.414Z,99.90
2018-09-24T03:57:31.788Z,99.90
2018-09-24T03:58:36.093Z,99.90
2018-09-24T03:59:40.381Z,99.90
2018-09-24T04:00:44.511Z,99.90
2018-09-24T04:01:48.891Z,99.90
2018-09-24T04:02:53.536Z,99.90
2018-09-24T04:04:03.135Z,99.90
2018-09-24T04:05:13.033Z,99.90
2018-09-24T04:06:22.639Z,99.90
2018-09-24T04:07:32.166Z,99.90
2018-09-24T04:08:41.772Z,99.90
2018-09-24T04:09:51.483Z,99.90
2018-09-24T04:11:01.040Z,99.90
2018-09-24T04:12:10.505Z,99.90
2018-09-24T04:13:20.178Z,99.90
2018-09-24T04:14:29.970Z,99.90
2018-09-24T04:15:39.594Z,99.90
2018-09-24T04:16:49.332Z,99.90
2018-09-24T04:17:58.841Z,99.90
2018-09-24T04:19:08.432Z,99.90
2018-09-24T04:20:18.178Z,99.90
2018-09-24T04:21:27.895Z,99.90
2018-09-24T04:22:37.806Z,99.90
2018-09-24T04:23:47.470Z,99.90
2018-09-24T04:24:56.935Z,99.90
2018-09-24T04:26:06.742Z,99.90
2018-09-24T04:27:16.336Z,99.90
2018-09-24T04:28:26.071Z,99.90
2018-09-24T04:29:35.990Z,99.90
2018-09-24T04:30:45.698Z,99.90
2018-09-24T04:31:55.429Z,99.90
2018-09-24T04:33:05.016Z,99.90
2018-09-24T04:34:14.640Z,99.90
2018-09-24T04:35:24.180Z,99.90
2018-09-24T04:36:33.786Z,99.90
2018-09-24T04:37:43.249Z,99.90
2018-09-24T04:38:53.016Z,99.90
2018-09-24T04:40:02.470Z,99.90
2018-09-24T04:41:11.978Z,99.90
2018-09-24T04:42:21.768Z,99.90
2018-09-24T04:43:31.370Z,99.90
2018-09-24T04:44:41.240Z,99.90
2018-09-24T04:45:50.744Z,99.90
2018-09-24T04:47:00.509Z,99.90
2018-09-24T04:48:09.936Z,99.90
2018-09-24T04:49:19.420Z,99.90
2018-09-24T04:50:28.852Z,99.90
2018-09-24T04:51:38.638Z,99.90
2018-09-24T04:52:48.142Z,99.90
2018-09-24T04:53:57.885Z,99.90
2018-09-24T04:55:07.549Z,99.90
2018-09-24T04:56:17.409Z,99.90
2018-09-24T04:57:27.098Z,99.90
2018-09-24T04:58:36.759Z,99.90
2018-09-24T04:59:46.531Z,99.90
2018-09-24T05:00:56.036Z,99.90
2018-09-24T05:02:05.630Z,99.90
2018-09-24T05:03:15.358Z,99.90
2018-09-24T05:04:24.905Z,99.90
2018-09-24T05:05:34.688Z,99.90
2018-09-24T05:06:44.159Z,99.90
2018-09-24T05:07:53.656Z,99.90
2018-09-24T05:09:03.181Z,99.90
2018-09-24T05:10:12.758Z,99.90
2018-09-24T05:11:22.795Z,99.90
2018-09-24T05:12:32.717Z,99.90
2018-09-24T05:13:42.238Z,99.90
2018-09-24T05:14:51.806Z,99.90
2018-09-24T05:16:01.312Z,99.90
2018-09-24T05:17:10.958Z,99.90
2018-09-24T05:18:20.707Z,99.90
2018-09-24T05:19:30.586Z,99.90
2018-09-24T05:20:40.469Z,99.90
2018-09-24T05:21:50.211Z,99.90
2018-09-24T05:23:00.032Z,99.90
2018-09-24T05:24:09.750Z,99.90
2018-09-24T05:25:19.346Z,99.90
2018-09-24T05:26:29.166Z,99.90
2018-09-24T05:27:38.698Z,99.90
2018-09-24T05:28:48.100Z,99.90
2018-09-24T05:29:57.846Z,99.90
2018-09-24T05:31:07.482Z,99.90
2018-09-24T05:32:16.948Z,99.90
2018-09-24T05:33:26.865Z,99.90
2018-09-24T05:34:36.780Z,99.90
2018-09-24T05:35:46.174Z,99.90
2018-09-24T05:36:55.693Z,99.90
2018-09-24T05:38:05.593Z,99.90
2018-09-24T05:39:15.170Z,99.90
2018-09-24T05:40:24.740Z,99.90
2018-09-24T05:41:34.270Z,99.90
2018-09-24T05:42:43.816Z,99.90
2018-09-24T05:43:53.419Z,99.90
2018-09-24T05:45:02.804Z,99.90
2018-09-24T05:46:13.786Z,99.90
2018-09-24T05:47:23.360Z,99.90
2018-09-24T05:48:32.964Z,99.90
2018-09-24T05:49:42.745Z,99.90
2018-09-24T05:50:52.528Z,99.90
2018-09-24T05:52:02.074Z,99.90
2018-09-24T05:53:11.811Z,99.90
2018-09-24T05:54:21.521Z,99.90
2018-09-24T05:55:31.011Z,99.90
2018-09-24T05:56:40.499Z,99.90
2018-09-24T05:57:50.090Z,99.90
2018-09-24T05:58:59.756Z,99.90
2018-09-24T06:00:09.677Z,99.90
2018-09-24T06:01:19.432Z,99.90
2018-09-24T06:02:29.023Z,99.90
2018-09-24T06:03:38.741Z,99.90
2018-09-24T06:04:48.256Z,99.90
2018-09-24T06:05:57.762Z,99.90
2018-09-24T06:07:07.366Z,99.90
2018-09-24T06:08:17.061Z,99.90
2018-09-24T06:09:26.485Z,99.90
2018-09-24T06:10:36.262Z,99.90
2018-09-24T06:11:46.367Z,99.90
2018-09-24T06:12:56.018Z,99.90
2018-09-24T06:14:06.398Z,99.90
2018-09-24T06:15:16.327Z,99.90
2018-09-24T06:16:25.884Z,99.90
2018-09-24T06:17:35.466Z,99.90
2018-09-24T06:18:44.926Z,99.90
2018-09-24T06:19:54.455Z,99.90
2018-09-24T06:21:04.335Z,99.90
2018-09-24T06:22:13.963Z,99.90
2018-09-24T06:23:24.038Z,99.90
2018-09-24T06:24:33.879Z,99.90
2018-09-24T06:25:43.399Z,99.90
2018-09-24T06:26:53.042Z,99.90
2018-09-24T06:28:02.662Z,99.90
2018-09-24T06:29:12.436Z,99.90
2018-09-24T06:30:21.853Z,99.90
2018-09-24T06:31:31.522Z,99.90
2018-09-24T06:32:41.124Z,99.90
2018-09-24T06:33:50.494Z,99.90
2018-09-24T06:34:59.924Z,99.90
2018-09-24T06:36:09.534Z,99.90
2018-09-24T06:37:19.413Z,99.90
2018-09-24T06:38:28.944Z,99.90
2018-09-24T06:39:38.581Z,99.90
2018-09-24T06:40:48.182Z,99.90
2018-09-24T06:41:57.788Z,99.90
2018-09-24T06:43:07.597Z,99.90
2018-09-24T06:44:17.567Z,99.90
2018-09-24T06:45:27.296Z,99.90
2018-09-24T06:46:36.730Z,99.90
2018-09-24T06:47:46.264Z,99.90
2018-09-24T06:48:56.090Z,99.90
2018-09-24T06:50:05.863Z,99.90
2018-09-24T06:51:15.499Z,99.90
2018-09-24T06:52:25.241Z,99.90
2018-09-24T06:53:34.968Z,99.90
2018-09-24T06:54:44.546Z,99.90
2018-09-24T06:55:54.158Z,99.90
2018-09-24T06:57:03.781Z,99.90
2018-09-24T06:58:13.569Z,99.90
2018-09-24T06:59:23.021Z,99.90
2018-09-24T07:00:32.449Z,99.90
2018-09-24T07:01:41.874Z,99.90
2018-09-24T07:02:51.631Z,99.90
2018-09-24T07:04:01.393Z,99.90
2018-09-24T07:05:11.345Z,99.90
2018-09-24T07:06:21.204Z,99.90
2018-09-24T07:07:30.772Z,99.90
2018-09-24T07:08:40.631Z,99.90
2018-09-24T07:09:50.017Z,99.90
2018-09-24T07:10:59.835Z,99.90
2018-09-24T07:12:09.260Z,99.90
2018-09-24T07:13:18.946Z,99.90
2018-09-24T07:14:28.739Z,99.90
2018-09-24T07:15:38.537Z,99.90
2018-09-24T07:16:48.264Z,99.90
2018-09-24T07:17:57.881Z,99.90
2018-09-24T07:19:07.298Z,99.90
2018-09-24T07:20:17.035Z,99.90
2018-09-24T07:21:26.642Z,99.90
2018-09-24T07:22:36.370Z,99.90
2018-09-24T07:23:45.788Z,99.90
2018-09-24T07:24:55.503Z,99.90
2018-09-24T07:26:05.175Z,99.90
2018-09-24T07:27:14.904Z,99.90
2018-09-24T07:28:24.423Z,99.90
2018-09-24T07:29:34.242Z,99.90
2018-09-24T07:30:43.865Z,99.90
2018-09-24T07:31:53.284Z,99.90
2018-09-24T07:33:02.830Z,99.90
2018-09-24T07:34:12.686Z,99.90
2018-09-24T07:35:22.245Z,99.90
2018-09-24T07:36:31.869Z,99.90
2018-09-24T07:37:41.296Z,99.90
2018-09-24T07:38:51.111Z,99.90
2018-09-24T07:40:00.834Z,99.90
2018-09-24T07:41:10.434Z,99.90
2018-09-24T07:42:19.919Z,99.90
2018-09-24T07:43:29.684Z,99.90
2018-09-24T07:44:39.274Z,99.90
2018-09-24T07:45:48.884Z,99.90
2018-09-24T07:46:58.489Z,99.90
2018-09-24T07:48:07.897Z,99.90
2018-09-24T07:49:17.397Z,99.90
2018-09-24T07:50:27.014Z,99.90
2018-09-24T07:51:36.394Z,99.90
2018-09-24T07:52:46.067Z,99.90
2018-09-24T07:53:55.740Z,99.90
2018-09-24T07:55:05.178Z,99.90
2018-09-24T07:56:14.731Z,99.90
2018-09-24T07:57:24.358Z,99.90
2018-09-24T07:58:34.010Z,99.90
2018-09-24T07:59:43.668Z,99.90
2018-09-24T08:00:53.217Z,99.90
2018-09-24T08:02:02.802Z,99.80
2018-09-24T08:03:12.393Z,99.90
2018-09-24T08:04:21.800Z,99.70
2018-09-24T08:05:31.305Z,99.90
2018-09-24T08:06:41.002Z,99.80
2018-09-24T08:07:50.677Z,99.90
2018-09-24T08:09:00.282Z,99.90
2018-09-24T08:10:09.899Z,99.60
2018-09-24T08:11:19.446Z,99.80
2018-09-24T08:12:29.021Z,99.60
2018-09-24T08:13:38.452Z,99.30
2018-09-24T08:14:48.181Z,99.20
2018-09-24T08:15:57.947Z,99.30
2018-09-24T08:17:07.549Z,99.40
2018-09-24T08:18:17.256Z,99.30
2018-09-24T08:19:26.814Z,99.70
2018-09-24T08:20:36.375Z,99.90
2018-09-24T08:21:45.933Z,99.90
2018-09-24T08:22:55.518Z,99.70
2018-09-24T08:24:05.193Z,98.60
2018-09-24T08:25:15.022Z,98.50
2018-09-24T08:26:24.594Z,98.60
2018-09-24T08:27:34.125Z,98.80
2018-09-24T08:28:43.663Z,98.80
2018-09-24T08:29:53.095Z,98.60
2018-09-24T08:31:02.972Z,98.70
2018-09-24T08:32:12.474Z,98.50
2018-09-24T08:33:21.911Z,98.80
2018-09-24T08:34:31.481Z,98.50
2018-09-24T08:35:41.252Z,98.80
2018-09-24T08:36:50.683Z,98.50
2018-09-24T08:38:00.205Z,98.50
2018-09-24T08:39:11.612Z,98.10
2018-09-24T08:40:21.360Z,98.50
2018-09-24T08:41:30.976Z,98.50
2018-09-24T08:42:40.466Z,98.60
2018-09-24T08:43:49.952Z,98.60
2018-09-24T08:44:59.433Z,98.60
2018-09-24T08:46:09.334Z,98.00
2018-09-24T08:47:18.985Z,98.30
2018-09-24T08:48:28.590Z,98.30
2018-09-24T08:49:38.419Z,98.40
2018-09-24T08:50:47.969Z,98.10
2018-09-24T08:51:57.718Z,98.20
2018-09-24T08:53:07.999Z,97.60
2018-09-24T08:54:17.531Z,97.30
2018-09-24T08:55:27.057Z,97.00
2018-09-24T08:56:36.802Z,96.80
2018-09-24T08:57:46.225Z,96.30
2018-09-24T08:58:55.802Z,95.50
2018-09-24T09:00:05.387Z,95.90
2018-09-24T09:01:14.889Z,96.40
2018-09-24T09:02:24.669Z,96.20
2018-09-24T09:03:34.443Z,96.00
2018-09-24T09:04:43.992Z,96.10
2018-09-24T09:05:53.836Z,95.90
2018-09-24T09:07:03.449Z,95.30
2018-09-24T09:08:13.306Z,94.90
2018-09-24T09:09:22.872Z,95.00
2018-09-24T09:10:32.713Z,95.40
2018-09-24T09:11:42.267Z,95.50
2018-09-24T09:12:51.705Z,95.80
2018-09-24T09:14:01.340Z,96.00
2018-09-24T09:15:10.966Z,96.10
2018-09-24T09:16:20.624Z,95.80
2018-09-24T09:17:30.081Z,95.60
2018-09-24T09:18:39.577Z,95.70
2018-09-24T09:19:49.143Z,95.60
2018-09-24T09:20:58.730Z,95.80
2018-09-24T09:22:08.614Z,95.20
2018-09-24T09:23:18.178Z,94.90
2018-09-24T09:24:27.685Z,94.80
2018-09-24T09:25:37.673Z,94.80
2018-09-24T09:26:47.272Z,95.00
2018-09-24T09:27:56.885Z,94.80
2018-09-24T09:29:06.615Z,94.90
2018-09-24T09:30:16.331Z,94.90
2018-09-24T09:31:26.177Z,95.30
2018-09-24T09:32:35.654Z,95.30
2018-09-24T09:33:45.341Z,95.20
2018-09-24T09:34:55.106Z,95.50
2018-09-24T09:36:04.618Z,95.70
2018-09-24T09:37:14.489Z,95.60
2018-09-24T09:38:23.947Z,95.90
2018-09-24T09:39:33.749Z,96.20
2018-09-24T09:40:43.220Z,96.40
2018-09-24T09:41:52.742Z,96.70
2018-09-24T09:43:02.422Z,96.80
2018-09-24T09:44:12.157Z,96.80
2018-09-24T09:45:21.745Z,96.40
2018-09-24T09:46:31.613Z,96.20
2018-09-24T09:47:41.116Z,95.70
2018-09-24T09:48:50.484Z,95.80
2018-09-24T09:49:59.799Z,95.50
2018-09-24T09:51:09.512Z,95.40
2018-09-24T09:52:19.091Z,94.90
2018-09-24T09:53:28.571Z,94.70
2018-09-24T09:54:38.029Z,94.00
2018-09-24T09:55:47.627Z,94.20
2018-09-24T09:56:57.177Z,93.80
2018-09-24T09:58:06.660Z,94.00
2018-09-24T09:59:16.165Z,93.60
2018-09-24T10:00:25.914Z,92.60
2018-09-24T10:01:35.652Z,92.70
2018-09-24T10:02:45.178Z,92.70
2018-09-24T10:03:54.717Z,92.70
2018-09-24T10:05:04.282Z,92.50
2018-09-24T10:06:13.670Z,91.90
2018-09-24T10:07:23.467Z,91.70
2018-09-24T10:08:33.106Z,91.70
2018-09-24T10:09:42.566Z,91.80
2018-09-24T10:10:52.120Z,92.00
2018-09-24T10:12:01.634Z,91.90
2018-09-24T10:13:11.164Z,92.00
2018-09-24T10:14:20.610Z,91.80
2018-09-24T10:15:30.213Z,91.90
2018-09-24T10:16:39.849Z,91.60
2018-09-24T10:17:49.410Z,91.20
2018-09-24T10:18:59.155Z,91.20
2018-09-24T10:20:09.054Z,90.30
2018-09-24T10:21:18.738Z,90.00
2018-09-24T10:22:28.414Z,90.20
2018-09-24T10:23:38.122Z,90.40
2018-09-24T10:24:47.869Z,90.20
2018-09-24T10:25:57.351Z,90.50
2018-09-24T10:27:07.032Z,89.40
2018-09-24T10:28:16.508Z,88.40
2018-09-24T10:29:26.098Z,88.50
2018-09-24T10:30:35.859Z,89.40
2018-09-24T10:31:45.417Z,89.50
2018-09-24T10:32:55.334Z,89.90
2018-09-24T10:34:04.807Z,89.30
2018-09-24T10:35:14.437Z,90.00
2018-09-24T10:36:24.049Z,89.30
2018-09-24T10:37:33.658Z,89.90
2018-09-24T10:38:43.180Z,90.20
2018-09-24T10:39:53.022Z,90.00
2018-09-24T10:41:02.669Z,90.00
2018-09-24T10:42:12.287Z,90.00
2018-09-24T10:43:21.874Z,89.70
2018-09-24T10:44:31.405Z,90.20
2018-09-24T10:45:41.119Z,90.40
2018-09-24T10:46:50.840Z,90.60
2018-09-24T10:48:00.657Z,90.50
2018-09-24T10:49:10.174Z,90.50
2018-09-24T10:50:19.802Z,90.30
2018-09-24T10:51:29.363Z,90.80
2018-09-24T10:52:38.861Z,91.40
2018-09-24T10:53:48.481Z,91.60
2018-09-24T10:54:58.000Z,91.50
2018-09-24T10:56:07.752Z,91.40
2018-09-24T10:57:17.406Z,91.20
2018-09-24T10:58:27.063Z,90.70
2018-09-24T10:59:36.835Z,90.60
2018-09-24T11:00:46.506Z,90.70
2018-09-24T11:01:56.145Z,90.80
2018-09-24T11:03:06.041Z,90.20
2018-09-24T11:04:15.479Z,90.20
2018-09-24T11:05:25.004Z,90.20
2018-09-24T11:06:34.768Z,90.30
2018-09-24T11:07:44.608Z,90.30
2018-09-24T11:08:54.361Z,90.20
2018-09-24T11:10:03.959Z,90.40
2018-09-24T11:11:13.548Z,90.20
2018-09-24T11:12:23.286Z,90.10
2018-09-24T11:13:32.852Z,90.20
2018-09-24T11:14:42.502Z,90.00
2018-09-24T11:15:52.324Z,90.00
2018-09-24T11:17:02.352Z,90.00
2018-09-24T11:18:11.746Z,89.50
2018-09-24T11:19:21.311Z,89.20
2018-09-24T11:20:30.807Z,88.70
2018-09-24T11:21:40.309Z,87.60
2018-09-24T11:22:50.041Z,86.80
2018-09-24T11:23:59.660Z,86.30
2018-09-24T11:25:08.975Z,86.60
2018-09-24T11:27:28.253Z,85.70
2018-09-24T11:28:37.913Z,85.30
2018-09-24T11:29:47.305Z,84.90
2018-09-24T11:30:56.786Z,85.60
2018-09-24T11:32:06.347Z,85.60
2018-09-24T11:33:15.984Z,86.30
2018-09-24T11:34:25.839Z,85.50
2018-09-24T11:35:35.460Z,85.00
2018-09-24T11:36:45.103Z,85.40
2018-09-24T11:37:54.489Z,86.40
2018-09-24T11:39:04.014Z,85.80
2018-09-24T11:40:13.391Z,85.20
2018-09-24T11:41:22.938Z,85.80
2018-09-24T11:42:32.684Z,86.30
2018-09-24T11:43:42.330Z,86.90
2018-09-24T11:44:52.101Z,86.50
2018-09-24T11:46:01.764Z,85.80
2018-09-24T11:47:11.841Z,85.50
2018-09-24T11:48:21.415Z,84.20
2018-09-24T11:49:31.082Z,84.70
2018-09-24T11:50:40.688Z,84.60
2018-09-24T11:51:50.178Z,86.20
2018-09-24T11:53:00.102Z,87.00
2018-09-24T11:54:09.540Z,86.90
2018-09-24T11:55:19.201Z,86.70
2018-09-24T11:56:28.700Z,86.80
2018-09-24T11:57:38.270Z,86.30
2018-09-24T11:58:47.785Z,84.90
2018-09-24T11:59:57.270Z,83.20
2018-09-24T12:01:07.039Z,82.30
2018-09-24T12:02:16.868Z,83.00
2018-09-24T12:03:26.578Z,83.40
2018-09-24T12:04:36.388Z,82.80
2018-09-24T12:05:45.870Z,83.50
2018-09-24T12:06:55.429Z,82.40
2018-09-24T12:08:05.124Z,82.70
2018-09-24T12:09:15.270Z,81.70
2018-09-24T12:10:25.105Z,82.00
2018-09-24T12:11:34.816Z,81.00
2018-09-24T12:12:44.299Z,81.30
2018-09-24T12:13:53.616Z,79.90
2018-09-24T12:15:03.437Z,79.40
2018-09-24T12:16:13.008Z,78.50
2018-09-24T12:17:22.808Z,78.90
2018-09-24T12:18:32.460Z,79.00
2018-09-24T12:19:41.862Z,80.10
2018-09-24T12:20:51.431Z,80.80
2018-09-24T12:22:01.090Z,81.00
2018-09-24T12:23:10.614Z,82.10
2018-09-24T12:24:20.195Z,82.70
2018-09-24T12:25:29.787Z,83.10
2018-09-24T12:26:39.356Z,82.70
2018-09-24T12:27:49.113Z,82.50
2018-09-24T12:28:58.843Z,83.00
2018-09-24T12:30:09.038Z,82.80
2018-09-24T12:31:18.901Z,83.00
2018-09-24T12:32:28.865Z,83.00
2018-09-24T12:33:38.563Z,83.20
2018-09-24T12:34:48.071Z,83.40
2018-09-24T12:35:57.584Z,83.90
2018-09-24T12:37:07.232Z,84.40
2018-09-24T12:38:16.935Z,84.40
2018-09-24T12:39:26.549Z,82.40
2018-09-24T12:40:36.084Z,82.20
2018-09-24T12:41:45.552Z,82.80
2018-09-24T12:42:55.164Z,83.50
2018-09-24T12:44:04.593Z,84.00
2018-09-24T12:45:14.502Z,82.70
2018-09-24T12:46:24.011Z,82.10
2018-09-24T12:47:33.662Z,82.50
2018-09-24T12:48:43.121Z,81.80
2018-09-24T12:49:52.775Z,80.10
2018-09-24T12:51:02.298Z,79.50
2018-09-24T12:52:11.810Z,79.80
2018-09-24T12:53:21.343Z,79.10
2018-09-24T12:54:30.970Z,78.50
2018-09-24T12:55:40.561Z,77.50
2018-09-24T12:56:50.290Z,77.90
2018-09-24T12:57:59.788Z,77.40
2018-09-24T12:59:09.412Z,77.10
2018-09-24T13:00:18.871Z,77.00
2018-09-24T13:01:28.431Z,74.70
2018-09-24T13:02:37.889Z,73.80
2018-09-24T13:03:47.604Z,73.10
2018-09-24T13:04:57.141Z,72.70
2018-09-24T13:06:06.709Z,74.10
2018-09-24T13:07:16.397Z,75.80
2018-09-24T13:08:26.286Z,75.00
2018-09-24T13:09:35.798Z,74.20
2018-09-24T13:10:45.320Z,75.00
2018-09-24T13:11:54.835Z,75.10
2018-09-24T13:13:04.638Z,75.40
2018-09-24T13:14:14.400Z,75.60
2018-09-24T13:15:23.877Z,75.50
2018-09-24T13:16:33.723Z,74.00
2018-09-24T13:17:43.509Z,73.30
2018-09-24T13:18:53.104Z,74.20
2018-09-24T13:20:02.883Z,73.90
2018-09-24T13:21:12.695Z,74.20
2018-09-24T13:22:22.447Z,74.60
2018-09-24T13:23:32.074Z,73.90
2018-09-24T13:24:41.704Z,73.40
2018-09-24T13:25:51.316Z,74.20
2018-09-24T13:27:00.795Z,74.10
2018-09-24T13:28:10.569Z,74.60
2018-09-24T13:29:20.209Z,73.10
2018-09-24T13:30:29.898Z,71.80
2018-09-24T13:31:39.496Z,71.00
2018-09-24T13:32:49.025Z,70.20
2018-09-24T13:33:58.541Z,71.10
2018-09-24T13:35:08.633Z,71.10
2018-09-24T13:36:18.326Z,70.90
2018-09-24T13:37:27.855Z,70.20
2018-09-24T13:38:37.311Z,70.70
2018-09-24T13:39:46.920Z,69.90
2018-09-24T13:40:56.611Z,70.60
2018-09-24T13:42:06.282Z,72.80
2018-09-24T13:43:16.100Z,73.00
2018-09-24T13:44:25.537Z,72.40
2018-09-24T13:45:35.054Z,73.00
2018-09-24T13:46:44.692Z,73.50
2018-09-24T13:47:54.437Z,74.20
2018-09-24T13:49:03.801Z,75.00
2018-09-24T13:50:13.643Z,75.90
2018-09-24T13:51:23.081Z,76.40
2018-09-24T13:52:32.739Z,75.80
2018-09-24T13:53:42.286Z,74.30
2018-09-24T13:54:51.904Z,74.10
2018-09-24T13:56:01.901Z,75.20
2018-09-24T13:57:11.338Z,75.60
2018-09-24T13:58:20.860Z,76.50
2018-09-24T13:59:30.464Z,75.80
2018-09-24T14:00:40.293Z,75.00
2018-09-24T14:01:49.950Z,74.00
2018-09-24T14:02:59.683Z,74.50
2018-09-24T14:04:09.178Z,74.70
2018-09-24T14:05:18.898Z,75.00
2018-09-24T14:06:28.667Z,75.70
2018-09-24T14:07:38.061Z,74.90
2018-09-24T14:08:47.700Z,75.40
2018-09-24T14:09:57.319Z,74.40
2018-09-24T14:11:07.023Z,74.60
2018-09-24T14:12:16.451Z,73.80
2018-09-24T14:13:25.947Z,74.30
2018-09-24T14:14:35.503Z,73.00
2018-09-24T14:15:45.082Z,73.50
2018-09-24T14:16:54.712Z,73.80
2018-09-24T14:18:04.319Z,73.60
2018-09-24T14:19:13.805Z,73.70
2018-09-24T14:20:23.337Z,73.40
2018-09-24T14:21:32.898Z,73.00
2018-09-24T14:22:42.422Z,72.10
2018-09-24T14:23:52.192Z,72.90
2018-09-24T14:25:01.907Z,72.30
2018-09-24T14:26:11.808Z,71.50
2018-09-24T14:27:21.294Z,72.50
2018-09-24T14:28:30.992Z,72.00
2018-09-24T14:29:40.503Z,70.50
2018-09-24T14:30:50.748Z,71.90
2018-09-24T14:32:00.174Z,72.40
2018-09-24T14:33:10.011Z,72.60
2018-09-24T14:34:19.551Z,72.60
2018-09-24T14:35:29.157Z,71.70
2018-09-24T14:36:38.648Z,71.60
2018-09-24T14:37:48.336Z,72.00
2018-09-24T14:38:57.969Z,70.70